sensor_id;sensor_type;location;lat;lon;timestamp;P1;durP1;ratioP1;P2;durP2;ratioP2
22571;SDS011;11452;53.368;14.658;2022-12-18T00:05:03;25.50;;;11.47;;
22571;SDS011;11452;53.368;14.658;2022-12-18T00:10:09;25.53;;;12.67;;
22571;SDS011;11452;53.368;14.658;2022-12-18T00:15:19;25.60;;;11.70;;
22571;SDS011;11452;53.368;14.658;2022-12-18T00:20:25;25.47;;;11.40;;
22571;SDS011;11452;53.368;14.658;2022-12-18T00:25:37;27.03;;;12.30;;
22571;SDS011;11452;53.368;14.658;2022-12-18T00:30:38;22.33;;;10.50;;
22571;SDS011;11452;53.368;14.658;2022-12-18T00:35:44;26.67;;;11.07;;
22571;SDS011;11452;53.368;14.658;2022-12-18T00:40:49;21.10;;;11.07;;
22571;SDS011;11452;53.368;14.658;2022-12-18T00:45:55;23.33;;;11.80;;
22571;SDS011;11452;53.368;14.658;2022-12-18T00:51:01;22.67;;;11.00;;
22571;SDS011;11452;53.368;14.658;2022-12-18T00:56:06;24.53;;;11.43;;
22571;SDS011;11452;53.368;14.658;2022-12-18T01:01:12;24.17;;;11.17;;
22571;SDS011;11452;53.368;14.658;2022-12-18T01:06:18;28.07;;;12.40;;
22571;SDS011;11452;53.368;14.658;2022-12-18T01:11:24;20.83;;;11.00;;
22571;SDS011;11452;53.368;14.658;2022-12-18T01:16:30;24.70;;;11.87;;
22571;SDS011;11452;53.368;14.658;2022-12-18T01:21:36;21.10;;;11.03;;
22571;SDS011;11452;53.368;14.658;2022-12-18T01:26:41;21.97;;;11.20;;
22571;SDS011;11452;53.368;14.658;2022-12-18T01:31:48;22.40;;;10.23;;
22571;SDS011;11452;53.368;14.658;2022-12-18T01:36:55;22.83;;;11.33;;
22571;SDS011;11452;53.368;14.658;2022-12-18T01:42:02;22.97;;;11.67;;
22571;SDS011;11452;53.368;14.658;2022-12-18T01:47:08;17.50;;;10.30;;
22571;SDS011;11452;53.368;14.658;2022-12-18T01:52:14;22.80;;;11.07;;
22571;SDS011;11452;53.368;14.658;2022-12-18T01:57:20;23.43;;;10.63;;
22571;SDS011;11452;53.368;14.658;2022-12-18T02:02:28;21.83;;;10.33;;
22571;SDS011;11452;53.368;14.658;2022-12-18T02:07:37;20.50;;;9.33;;
22571;SDS011;11452;53.368;14.658;2022-12-18T02:12:58;19.30;;;10.00;;
22571;SDS011;11452;53.368;14.658;2022-12-18T02:28:45;22.20;;;11.03;;
22571;SDS011;11452;53.368;14.658;2022-12-18T02:33:51;22.87;;;11.27;;
22571;SDS011;11452;53.368;14.658;2022-12-18T02:38:59;15.80;;;8.63;;
22571;SDS011;11452;53.368;14.658;2022-12-18T02:44:07;20.03;;;10.60;;
22571;SDS011;11452;53.368;14.658;2022-12-18T02:49:32;17.60;;;9.13;;
22571;SDS011;11452;53.368;14.658;2022-12-18T02:54:57;18.80;;;9.03;;
22571;SDS011;11452;53.368;14.658;2022-12-18T03:00:24;14.73;;;7.37;;
22571;SDS011;11452;53.368;14.658;2022-12-18T03:10:44;17.10;;;8.67;;
22571;SDS011;11452;53.368;14.658;2022-12-18T03:15:57;16.57;;;8.67;;
22571;SDS011;11452;53.368;14.658;2022-12-18T03:21:06;16.83;;;8.97;;
22571;SDS011;11452;53.368;14.658;2022-12-18T03:26:19;16.67;;;8.37;;
22571;SDS011;11452;53.368;14.658;2022-12-18T03:31:28;19.53;;;9.07;;
22571;SDS011;11452;53.368;14.658;2022-12-18T03:36:36;17.93;;;8.17;;
22571;SDS011;11452;53.368;14.658;2022-12-18T03:41:43;19.33;;;8.90;;
22571;SDS011;11452;53.368;14.658;2022-12-18T03:52:22;17.83;;;8.37;;
22571;SDS011;11452;53.368;14.658;2022-12-18T03:57:42;19.83;;;9.00;;
22571;SDS011;11452;53.368;14.658;2022-12-18T04:02:50;19.30;;;9.43;;
22571;SDS011;11452;53.368;14.658;2022-12-18T04:07:59;17.17;;;9.63;;
22571;SDS011;11452;53.368;14.658;2022-12-18T04:13:08;22.10;;;10.77;;
22571;SDS011;11452;53.368;14.658;2022-12-18T04:18:16;22.20;;;10.07;;
22571;SDS011;11452;53.368;14.658;2022-12-18T04:23:22;25.20;;;11.23;;
22571;SDS011;11452;53.368;14.658;2022-12-18T04:28:29;21.53;;;10.93;;
22571;SDS011;11452;53.368;14.658;2022-12-18T04:33:34;21.93;;;10.50;;
22571;SDS011;11452;53.368;14.658;2022-12-18T04:38:41;20.40;;;10.87;;
22571;SDS011;11452;53.368;14.658;2022-12-18T04:43:49;20.93;;;11.33;;
22571;SDS011;11452;53.368;14.658;2022-12-18T04:48:54;22.70;;;10.43;;
22571;SDS011;11452;53.368;14.658;2022-12-18T04:54:00;24.47;;;11.53;;
22571;SDS011;11452;53.368;14.658;2022-12-18T04:59:05;23.13;;;11.03;;
22571;SDS011;11452;53.368;14.658;2022-12-18T05:04:11;20.97;;;9.83;;
22571;SDS011;11452;53.368;14.658;2022-12-18T05:09:16;28.60;;;12.53;;
22571;SDS011;11452;53.368;14.658;2022-12-18T05:14:22;24.57;;;10.73;;
22571;SDS011;11452;53.368;14.658;2022-12-18T05:19:27;25.17;;;11.30;;
22571;SDS011;11452;53.368;14.658;2022-12-18T05:24:33;21.07;;;10.07;;
22571;SDS011;11452;53.368;14.658;2022-12-18T05:29:38;23.53;;;10.90;;
22571;SDS011;11452;53.368;14.658;2022-12-18T05:34:44;20.00;;;9.90;;
22571;SDS011;11452;53.368;14.658;2022-12-18T05:39:49;20.17;;;9.77;;
22571;SDS011;11452;53.368;14.658;2022-12-18T05:44:54;20.33;;;9.90;;
22571;SDS011;11452;53.368;14.658;2022-12-18T05:50:00;18.27;;;9.33;;
22571;SDS011;11452;53.368;14.658;2022-12-18T05:55:06;16.40;;;9.07;;
22571;SDS011;11452;53.368;14.658;2022-12-18T06:00:12;20.13;;;9.13;;
22571;SDS011;11452;53.368;14.658;2022-12-18T06:05:19;15.37;;;8.00;;
22571;SDS011;11452;53.368;14.658;2022-12-18T06:10:24;15.67;;;8.27;;
22571;SDS011;11452;53.368;14.658;2022-12-18T06:15:30;15.63;;;9.27;;
22571;SDS011;11452;53.368;14.658;2022-12-18T06:20:36;15.73;;;8.97;;
22571;SDS011;11452;53.368;14.658;2022-12-18T06:25:43;17.20;;;8.27;;
22571;SDS011;11452;53.368;14.658;2022-12-18T06:30:48;14.17;;;7.50;;
22571;SDS011;11452;53.368;14.658;2022-12-18T06:35:59;14.67;;;8.40;;
22571;SDS011;11452;53.368;14.658;2022-12-18T06:41:10;16.93;;;8.17;;
22571;SDS011;11452;53.368;14.658;2022-12-18T06:46:17;15.97;;;7.93;;
22571;SDS011;11452;53.368;14.658;2022-12-18T06:51:23;17.03;;;8.67;;
22571;SDS011;11452;53.368;14.658;2022-12-18T06:56:30;13.10;;;7.47;;
22571;SDS011;11452;53.368;14.658;2022-12-18T07:01:36;15.33;;;8.83;;
22571;SDS011;11452;53.368;14.658;2022-12-18T07:06:42;15.00;;;8.07;;
22571;SDS011;11452;53.368;14.658;2022-12-18T07:11:47;16.23;;;8.70;;
22571;SDS011;11452;53.368;14.658;2022-12-18T07:16:53;21.70;;;10.23;;
22571;SDS011;11452;53.368;14.658;2022-12-18T07:21:59;13.87;;;8.43;;
22571;SDS011;11452;53.368;14.658;2022-12-18T07:27:05;19.07;;;10.23;;
22571;SDS011;11452;53.368;14.658;2022-12-18T07:32:11;14.67;;;7.73;;
22571;SDS011;11452;53.368;14.658;2022-12-18T07:37:17;15.37;;;8.53;;
22571;SDS011;11452;53.368;14.658;2022-12-18T07:42:22;13.97;;;8.03;;
22571;SDS011;11452;53.368;14.658;2022-12-18T07:47:34;16.43;;;9.37;;
22571;SDS011;11452;53.368;14.658;2022-12-18T07:52:40;15.83;;;9.17;;
22571;SDS011;11452;53.368;14.658;2022-12-18T07:57:45;18.77;;;9.73;;
22571;SDS011;11452;53.368;14.658;2022-12-18T08:02:52;17.93;;;10.00;;
22571;SDS011;11452;53.368;14.658;2022-12-18T08:07:58;21.97;;;11.70;;
22571;SDS011;11452;53.368;14.658;2022-12-18T08:13:03;24.43;;;11.97;;
22571;SDS011;11452;53.368;14.658;2022-12-18T08:18:09;24.00;;;12.13;;
22571;SDS011;11452;53.368;14.658;2022-12-18T08:23:16;24.77;;;12.80;;
22571;SDS011;11452;53.368;14.658;2022-12-18T08:28:21;23.10;;;10.97;;
22571;SDS011;11452;53.368;14.658;2022-12-18T08:33:27;16.77;;;9.23;;
22571;SDS011;11452;53.368;14.658;2022-12-18T08:38:33;20.63;;;11.33;;
22571;SDS011;11452;53.368;14.658;2022-12-18T08:43:38;18.37;;;10.57;;
22571;SDS011;11452;53.368;14.658;2022-12-18T08:49:02;19.90;;;11.03;;
22571;SDS011;11452;53.368;14.658;2022-12-18T08:54:10;20.40;;;11.10;;
22571;SDS011;11452;53.368;14.658;2022-12-18T08:59:17;21.63;;;11.40;;
22571;SDS011;11452;53.368;14.658;2022-12-18T09:04:23;22.40;;;12.23;;
22571;SDS011;11452;53.368;14.658;2022-12-18T09:09:29;21.17;;;11.10;;
22571;SDS011;11452;53.368;14.658;2022-12-18T09:14:35;20.47;;;11.47;;
22571;SDS011;11452;53.368;14.658;2022-12-18T09:19:41;16.37;;;9.73;;
22571;SDS011;11452;53.368;14.658;2022-12-18T09:24:48;21.57;;;11.10;;
22571;SDS011;11452;53.368;14.658;2022-12-18T09:29:53;18.00;;;10.10;;
22571;SDS011;11452;53.368;14.658;2022-12-18T09:34:59;18.63;;;10.60;;
22571;SDS011;11452;53.368;14.658;2022-12-18T09:40:05;19.23;;;10.10;;
22571;SDS011;11452;53.368;14.658;2022-12-18T09:45:13;17.77;;;10.07;;
22571;SDS011;11452;53.368;14.658;2022-12-18T09:55:42;17.10;;;10.13;;
22571;SDS011;11452;53.368;14.658;2022-12-18T10:00:51;22.50;;;12.07;;
22571;SDS011;11452;53.368;14.658;2022-12-18T10:06:02;21.67;;;10.40;;
22571;SDS011;11452;53.368;14.658;2022-12-18T10:27:15;18.93;;;12.33;;
22571;SDS011;11452;53.368;14.658;2022-12-18T10:32:24;21.63;;;11.33;;
22571;SDS011;11452;53.368;14.658;2022-12-18T10:37:31;20.37;;;11.93;;
22571;SDS011;11452;53.368;14.658;2022-12-18T10:42:37;19.80;;;11.17;;
22571;SDS011;11452;53.368;14.658;2022-12-18T10:47:47;19.83;;;10.93;;
22571;SDS011;11452;53.368;14.658;2022-12-18T10:52:55;21.47;;;12.17;;
22571;SDS011;11452;53.368;14.658;2022-12-18T11:03:30;23.33;;;12.73;;
22571;SDS011;11452;53.368;14.658;2022-12-18T11:08:43;17.60;;;10.70;;
22571;SDS011;11452;53.368;14.658;2022-12-18T11:14:10;20.27;;;12.43;;
22571;SDS011;11452;53.368;14.658;2022-12-18T11:19:33;19.00;;;11.87;;
22571;SDS011;11452;53.368;14.658;2022-12-18T11:24:41;18.67;;;10.73;;
22571;SDS011;11452;53.368;14.658;2022-12-18T11:29:49;21.33;;;11.47;;
22571;SDS011;11452;53.368;14.658;2022-12-18T11:35:00;15.97;;;8.83;;
22571;SDS011;11452;53.368;14.658;2022-12-18T11:40:35;23.90;;;12.70;;
22571;SDS011;11452;53.368;14.658;2022-12-18T11:45:45;22.10;;;12.47;;
22571;SDS011;11452;53.368;14.658;2022-12-18T11:50:57;20.83;;;11.93;;
22571;SDS011;11452;53.368;14.658;2022-12-18T12:12:18;16.07;;;8.97;;
22571;SDS011;11452;53.368;14.658;2022-12-18T12:22:47;18.80;;;11.00;;
22571;SDS011;11452;53.368;14.658;2022-12-18T12:38:32;21.83;;;12.37;;
22571;SDS011;11452;53.368;14.658;2022-12-18T12:43:50;25.50;;;13.40;;
22571;SDS011;11452;53.368;14.658;2022-12-18T12:48:59;20.37;;;12.67;;
22571;SDS011;11452;53.368;14.658;2022-12-18T12:54:16;21.33;;;13.07;;
22571;SDS011;11452;53.368;14.658;2022-12-18T12:59:26;23.67;;;13.00;;
22571;SDS011;11452;53.368;14.658;2022-12-18T13:04:49;25.70;;;12.33;;
22571;SDS011;11452;53.368;14.658;2022-12-18T13:36:46;19.03;;;12.13;;
22571;SDS011;11452;53.368;14.658;2022-12-18T13:41:54;20.70;;;11.10;;
22571;SDS011;11452;53.368;14.658;2022-12-18T13:47:05;18.97;;;11.33;;
22571;SDS011;11452;53.368;14.658;2022-12-18T13:52:17;18.60;;;10.97;;
22571;SDS011;11452;53.368;14.658;2022-12-18T13:57:37;19.20;;;10.10;;
22571;SDS011;11452;53.368;14.658;2022-12-18T14:02:44;19.00;;;10.47;;
22571;SDS011;11452;53.368;14.658;2022-12-18T14:07:51;18.17;;;11.17;;
22571;SDS011;11452;53.368;14.658;2022-12-18T14:13:03;17.50;;;9.60;;
22571;SDS011;11452;53.368;14.658;2022-12-18T14:18:21;19.83;;;11.10;;
22571;SDS011;11452;53.368;14.658;2022-12-18T14:28:44;20.77;;;11.83;;
22571;SDS011;11452;53.368;14.658;2022-12-18T14:33:50;20.37;;;11.90;;
22571;SDS011;11452;53.368;14.658;2022-12-18T14:38:57;21.50;;;12.90;;
22571;SDS011;11452;53.368;14.658;2022-12-18T14:44:05;19.43;;;12.43;;
22571;SDS011;11452;53.368;14.658;2022-12-18T14:49:20;21.23;;;13.07;;
22571;SDS011;11452;53.368;14.658;2022-12-18T14:54:27;22.57;;;13.63;;
22571;SDS011;11452;53.368;14.658;2022-12-18T14:59:34;24.03;;;14.07;;
22571;SDS011;11452;53.368;14.658;2022-12-18T15:04:41;25.00;;;14.40;;
22571;SDS011;11452;53.368;14.658;2022-12-18T15:20:50;26.27;;;14.27;;
22571;SDS011;11452;53.368;14.658;2022-12-18T15:26:03;25.30;;;14.87;;
22571;SDS011;11452;53.368;14.658;2022-12-18T15:36:23;23.67;;;13.47;;
22571;SDS011;11452;53.368;14.658;2022-12-18T15:41:30;25.17;;;14.00;;
22571;SDS011;11452;53.368;14.658;2022-12-18T15:46:40;22.30;;;13.40;;
22571;SDS011;11452;53.368;14.658;2022-12-18T15:51:45;21.93;;;12.90;;
22571;SDS011;11452;53.368;14.658;2022-12-18T15:56:57;25.77;;;13.53;;
22571;SDS011;11452;53.368;14.658;2022-12-18T16:02:20;24.97;;;12.30;;
22571;SDS011;11452;53.368;14.658;2022-12-18T16:07:27;20.27;;;10.80;;
22571;SDS011;11452;53.368;14.658;2022-12-18T16:12:33;20.93;;;11.70;;
22571;SDS011;11452;53.368;14.658;2022-12-18T16:17:40;19.10;;;11.43;;
22571;SDS011;11452;53.368;14.658;2022-12-18T16:22:46;18.97;;;10.30;;
22571;SDS011;11452;53.368;14.658;2022-12-18T16:27:53;19.70;;;11.67;;
22571;SDS011;11452;53.368;14.658;2022-12-18T16:32:59;22.30;;;13.50;;
22571;SDS011;11452;53.368;14.658;2022-12-18T16:38:05;20.50;;;10.93;;
22571;SDS011;11452;53.368;14.658;2022-12-18T16:43:12;19.53;;;12.03;;
22571;SDS011;11452;53.368;14.658;2022-12-18T16:48:17;20.20;;;11.57;;
22571;SDS011;11452;53.368;14.658;2022-12-18T16:53:23;19.07;;;10.47;;
22571;SDS011;11452;53.368;14.658;2022-12-18T16:58:29;24.50;;;12.17;;
22571;SDS011;11452;53.368;14.658;2022-12-18T17:03:34;17.37;;;11.43;;
22571;SDS011;11452;53.368;14.658;2022-12-18T17:08:40;16.97;;;10.37;;
22571;SDS011;11452;53.368;14.658;2022-12-18T17:13:48;18.97;;;12.03;;
22571;SDS011;11452;53.368;14.658;2022-12-18T17:18:53;17.73;;;11.13;;
22571;SDS011;11452;53.368;14.658;2022-12-18T17:23:59;16.63;;;10.53;;
22571;SDS011;11452;53.368;14.658;2022-12-18T17:29:06;14.83;;;9.37;;
22571;SDS011;11452;53.368;14.658;2022-12-18T17:34:12;21.03;;;11.97;;
22571;SDS011;11452;53.368;14.658;2022-12-18T17:39:19;21.93;;;11.77;;
22571;SDS011;11452;53.368;14.658;2022-12-18T17:44:25;20.53;;;10.27;;
22571;SDS011;11452;53.368;14.658;2022-12-18T17:49:31;22.20;;;13.03;;
22571;SDS011;11452;53.368;14.658;2022-12-18T17:54:37;19.47;;;11.67;;
22571;SDS011;11452;53.368;14.658;2022-12-18T17:59:45;22.87;;;13.33;;
22571;SDS011;11452;53.368;14.658;2022-12-18T18:04:50;27.63;;;17.60;;
22571;SDS011;11452;53.368;14.658;2022-12-18T18:09:55;21.00;;;13.63;;
22571;SDS011;11452;53.368;14.658;2022-12-18T18:15:01;25.07;;;13.80;;
22571;SDS011;11452;53.368;14.658;2022-12-18T18:20:08;22.93;;;14.20;;
22571;SDS011;11452;53.368;14.658;2022-12-18T18:25:16;29.37;;;14.00;;
22571;SDS011;11452;53.368;14.658;2022-12-18T18:30:22;23.93;;;14.17;;
22571;SDS011;11452;53.368;14.658;2022-12-18T18:35:28;21.03;;;13.30;;
22571;SDS011;11452;53.368;14.658;2022-12-18T18:40:36;27.83;;;16.00;;
22571;SDS011;11452;53.368;14.658;2022-12-18T18:45:43;26.57;;;15.37;;
22571;SDS011;11452;53.368;14.658;2022-12-18T18:50:56;27.17;;;15.47;;
22571;SDS011;11452;53.368;14.658;2022-12-18T18:56:04;28.37;;;16.10;;
22571;SDS011;11452;53.368;14.658;2022-12-18T19:01:18;29.50;;;16.13;;
22571;SDS011;11452;53.368;14.658;2022-12-18T19:06:25;30.87;;;17.13;;
22571;SDS011;11452;53.368;14.658;2022-12-18T19:11:32;29.30;;;15.70;;
22571;SDS011;11452;53.368;14.658;2022-12-18T19:16:56;33.07;;;16.10;;
22571;SDS011;11452;53.368;14.658;2022-12-18T19:22:02;30.60;;;17.73;;
22571;SDS011;11452;53.368;14.658;2022-12-18T19:27:08;34.80;;;18.60;;
22571;SDS011;11452;53.368;14.658;2022-12-18T19:32:13;29.60;;;17.83;;
22571;SDS011;11452;53.368;14.658;2022-12-18T19:37:19;32.57;;;17.83;;
22571;SDS011;11452;53.368;14.658;2022-12-18T19:42:24;35.93;;;18.67;;
22571;SDS011;11452;53.368;14.658;2022-12-18T19:47:31;36.20;;;18.83;;
22571;SDS011;11452;53.368;14.658;2022-12-18T19:52:37;33.17;;;19.43;;
22571;SDS011;11452;53.368;14.658;2022-12-18T19:57:43;33.13;;;19.37;;
22571;SDS011;11452;53.368;14.658;2022-12-18T20:02:48;34.70;;;19.40;;
22571;SDS011;11452;53.368;14.658;2022-12-18T20:07:56;32.30;;;18.77;;
22571;SDS011;11452;53.368;14.658;2022-12-18T20:13:01;39.53;;;20.97;;
22571;SDS011;11452;53.368;14.658;2022-12-18T20:18:08;38.70;;;20.73;;
22571;SDS011;11452;53.368;14.658;2022-12-18T20:23:14;38.97;;;20.97;;
22571;SDS011;11452;53.368;14.658;2022-12-18T20:28:21;39.10;;;21.03;;
22571;SDS011;11452;53.368;14.658;2022-12-18T20:33:28;41.73;;;22.70;;
22571;SDS011;11452;53.368;14.658;2022-12-18T20:38:34;42.25;;;27.25;;
22571;SDS011;11452;53.368;14.658;2022-12-18T20:43:43;40.97;;;22.93;;
22571;SDS011;11452;53.368;14.658;2022-12-18T20:48:49;43.37;;;22.40;;
22571;SDS011;11452;53.368;14.658;2022-12-18T20:53:54;38.60;;;22.47;;
22571;SDS011;11452;53.368;14.658;2022-12-18T20:59:02;41.10;;;22.93;;
22571;SDS011;11452;53.368;14.658;2022-12-18T21:04:07;46.30;;;23.10;;
22571;SDS011;11452;53.368;14.658;2022-12-18T21:09:13;44.40;;;22.07;;
22571;SDS011;11452;53.368;14.658;2022-12-18T21:14:20;50.67;;;24.93;;
22571;SDS011;11452;53.368;14.658;2022-12-18T21:19:27;42.37;;;24.87;;
22571;SDS011;11452;53.368;14.658;2022-12-18T21:24:34;43.67;;;24.10;;
22571;SDS011;11452;53.368;14.658;2022-12-18T21:29:39;44.00;;;23.60;;
22571;SDS011;11452;53.368;14.658;2022-12-18T21:34:46;44.67;;;22.60;;
22571;SDS011;11452;53.368;14.658;2022-12-18T21:39:51;47.73;;;24.47;;
22571;SDS011;11452;53.368;14.658;2022-12-18T21:44:57;40.47;;;20.90;;
22571;SDS011;11452;53.368;14.658;2022-12-18T21:50:03;44.63;;;23.07;;
22571;SDS011;11452;53.368;14.658;2022-12-18T21:55:09;40.67;;;22.90;;
22571;SDS011;11452;53.368;14.658;2022-12-18T22:00:14;45.73;;;23.63;;
22571;SDS011;11452;53.368;14.658;2022-12-18T22:05:22;47.53;;;23.00;;
22571;SDS011;11452;53.368;14.658;2022-12-18T22:10:27;41.50;;;21.63;;
22571;SDS011;11452;53.368;14.658;2022-12-18T22:15:33;49.23;;;24.20;;
22571;SDS011;11452;53.368;14.658;2022-12-18T22:20:38;44.87;;;23.13;;
22571;SDS011;11452;53.368;14.658;2022-12-18T22:25:44;45.43;;;22.73;;
22571;SDS011;11452;53.368;14.658;2022-12-18T22:30:50;42.10;;;22.23;;
22571;SDS011;11452;53.368;14.658;2022-12-18T22:36:03;35.33;;;19.63;;
22571;SDS011;11452;53.368;14.658;2022-12-18T22:41:09;42.53;;;22.43;;
22571;SDS011;11452;53.368;14.658;2022-12-18T22:46:15;40.83;;;21.83;;
22571;SDS011;11452;53.368;14.658;2022-12-18T22:51:22;44.47;;;21.93;;
22571;SDS011;11452;53.368;14.658;2022-12-18T22:56:28;46.60;;;22.03;;
22571;SDS011;11452;53.368;14.658;2022-12-18T23:01:34;46.90;;;23.73;;
22571;SDS011;11452;53.368;14.658;2022-12-18T23:06:43;42.43;;;23.33;;
22571;SDS011;11452;53.368;14.658;2022-12-18T23:11:49;43.97;;;21.20;;
22571;SDS011;11452;53.368;14.658;2022-12-18T23:16:55;42.30;;;22.13;;
22571;SDS011;11452;53.368;14.658;2022-12-18T23:22:00;42.40;;;21.43;;
22571;SDS011;11452;53.368;14.658;2022-12-18T23:27:07;40.87;;;21.90;;
22571;SDS011;11452;53.368;14.658;2022-12-18T23:32:14;39.87;;;22.50;;
22571;SDS011;11452;53.368;14.658;2022-12-18T23:37:20;40.83;;;22.10;;
22571;SDS011;11452;53.368;14.658;2022-12-18T23:42:27;43.97;;;22.07;;
22571;SDS011;11452;53.368;14.658;2022-12-18T23:47:32;44.63;;;20.90;;
22571;SDS011;11452;53.368;14.658;2022-12-18T23:52:38;42.37;;;21.40;;
22571;SDS011;11452;53.368;14.658;2022-12-18T23:57:43;39.30;;;20.00;;
